Time;durP1;ratioP1;P1;durP2;ratioP2;P2;SDS_P1;SDS_P2;PMS_P1;PMS_P2;Temp;Humidity;BMP_temperature;BMP_pressure;BME280_temperature;BME280_humidity;BME280_pressure;Samples;Min_cycle;Max_cycle;Signal;HPM_P1;HPM_P2
2022/07/16 00:02:42;;;;;;;4.50;2.45;;;;;;;18.00;65.95;101884.66;7391597;19;20534;-59
2022/07/16 00:05:12;;;;;;;5.25;2.70;;;;;;;18.00;65.99;101884.66;7386359;19;20010;-59
2022/07/16 00:07:43;;;;;;;4.30;2.25;;;;;;;17.95;66.33;101877.34;7390859;19;20015;-61
2022/07/16 00:10:12;;;;;;;4.10;2.13;;;;;;;17.91;65.85;101870.88;7386873;19;20023;-58
2022/07/16 00:12:46;;;;;;;4.80;2.38;;;;;;;17.89;66.13;101869.63;7389004;19;20026;-59
2022/07/16 00:15:15;;;;;;;4.05;2.55;;;;;;;17.89;66.13;101869.63;7385978;19;20018;-61
2022/07/16 00:17:45;;;;;;;3.88;2.10;;;;;;;17.83;66.14;101862.66;7387801;19;20037;-62
2022/07/16 00:20:14;;;;;;;3.45;2.33;;;;;;;17.79;66.31;101871.00;7387741;19;20118;-62
2022/07/16 00:22:42;;;;;;;3.83;2.33;;;;;;;17.71;66.66;101854.41;7390755;19;20468;-61
2022/07/16 00:25:11;;;;;;;3.83;2.53;;;;;;;17.68;67.00;101860.75;7389238;19;20011;-59
2022/07/16 00:27:40;;;;;;;4.15;1.95;;;;;;;17.65;67.00;101862.28;7390718;19;20029;-61
2022/07/16 00:30:09;;;;;;;4.80;2.00;;;;;;;17.64;67.24;101858.66;7390572;19;20076;-61
2022/07/16 00:32:38;;;;;;;4.93;2.30;;;;;;;17.63;67.06;101859.84;7388520;19;20022;-60
2022/07/16 00:35:09;;;;;;;3.20;2.05;;;;;;;17.64;67.05;101863.47;7390007;19;20014;-61
2022/07/16 00:37:38;;;;;;;2.25;2.03;;;;;;;17.61;67.14;101859.41;7381920;19;20019;-62
2022/07/16 00:40:08;;;;;;;4.18;2.28;;;;;;;17.62;67.23;101851.81;7389797;19;20014;-62
2022/07/16 00:42:38;;;;;;;2.20;2.00;;;;;;;17.60;67.37;101855.00;7384744;19;20032;-60
2022/07/16 00:45:08;;;;;;;3.17;2.53;;;;;;;17.62;67.31;101851.81;7387698;19;20014;-61
2022/07/16 00:47:37;;;;;;;2.20;2.00;;;;;;;17.62;67.10;101858.25;7382510;19;20021;-61
2022/07/16 00:50:07;;;;;;;2.78;2.00;;;;;;;17.59;67.18;101849.75;7390843;19;20022;-62
2022/07/16 00:52:37;;;;;;;4.57;2.28;;;;;;;17.58;67.45;101842.50;7386447;19;20029;-61
2022/07/16 00:55:07;;;;;;;3.33;2.22;;;;;;;17.56;67.60;101856.88;7388893;19;20013;-61
2022/07/16 00:58:13;;;;;;;2.55;2.05;;;;;;;17.51;67.11;101851.53;7382677;19;20041;-60
2022/07/16 01:00:54;;;;;;;2.50;2.30;;;;;;;17.45;67.15;101853.00;7384174;19;20495;-61
2022/07/16 01:07:37;;;;;;;3.38;1.83;;;;;;;17.33;68.05;101860.72;7398492;19;20013;-60
2022/07/16 01:10:58;;;;;;;4.55;2.47;;;;;;;17.38;67.64;101858.44;7390199;19;20010;-61
2022/07/16 01:13:49;;;;;;;4.68;2.30;;;;;;;17.41;67.55;101857.72;7398376;19;20017;-61
2022/07/16 01:20:03;;;;;;;4.07;2.28;;;;;;;17.25;67.92;101851.34;7396064;19;20070;-59
2022/07/16 01:22:30;;;;;;;2.53;2.13;;;;;;;17.22;68.34;101854.84;7393980;19;20014;-58
2022/07/16 01:24:58;;;;;;;3.75;2.63;;;;;;;17.20;68.58;101857.22;7396862;19;20014;-61
2022/07/16 01:27:25;;;;;;;2.15;1.92;;;;;;;17.17;68.52;101851.53;7398145;19;20029;-62
2022/07/16 01:29:53;;;;;;;5.13;2.67;;;;;;;17.20;68.34;101851.63;7397233;19;20025;-62
2022/07/16 01:32:20;;;;;;;3.97;3.00;;;;;;;17.21;68.35;101852.44;7391648;19;20036;-61
2022/07/16 01:34:48;;;;;;;7.05;2.95;;;;;;;17.17;68.98;101849.53;7393996;19;20015;-59
2022/07/16 01:37:15;;;;;;;3.35;2.63;;;;;;;17.16;68.92;101839.50;7396295;19;20014;-59
2022/07/16 01:39:43;;;;;;;3.97;2.80;;;;;;;17.20;68.63;101839.59;7396816;19;20336;-59
2022/07/16 01:42:11;;;;;;;4.25;2.75;;;;;;;17.24;68.85;101846.91;7396176;19;20014;-62
2022/07/16 01:44:40;;;;;;;5.20;2.67;;;;;;;17.21;68.78;101836.44;7395797;19;20014;-61
2022/07/16 01:50:54;;;;;;;3.40;2.88;;;;;;;17.17;68.78;101837.53;7395459;19;20034;-62
2022/07/16 01:53:42;;;;;;;4.03;3.33;;;;;;;17.15;68.63;101843.50;7397110;19;20011;-62
2022/07/16 01:56:30;;;;;;;8.48;3.28;;;;;;;17.11;68.70;101845.38;7400997;19;20017;-60
2022/07/16 01:59:17;;;;;;;3.15;2.85;;;;;;;17.09;68.91;101844.13;7399396;19;20007;-60
2022/07/16 02:06:06;;;;;;;4.57;3.03;;;;;;;17.01;68.93;101855.16;7405380;19;20007;-60
2022/07/16 02:09:16;;;;;;;6.30;3.38;;;;;;;17.04;69.14;101845.22;7403192;19;20468;-60
2022/07/16 02:11:43;;;;;;;4.13;3.03;;;;;;;17.09;68.63;101842.16;7405794;19;20340;-61
2022/07/16 02:21:21;;;;;;;5.20;3.70;;;;;;;16.91;68.98;101835.31;7401267;19;20428;-60
2022/07/16 02:30:47;;;;;;;6.20;2.67;;;;;;;16.82;69.23;101826.28;7394788;19;20019;-61
2022/07/16 02:37:00;;;;;;;5.28;2.53;;;;;;;16.74;68.71;101832.84;7405131;19;20007;-60
2022/07/16 02:43:06;;;;;;;6.40;3.55;;;;;;;16.66;69.25;101828.25;7403658;19;20015;-62
2022/07/16 02:52:32;;;;;;;6.13;3.13;;;;;;;16.60;69.49;101826.91;7401079;19;20066;-61
2022/07/16 02:55:01;;;;;;;6.00;4.18;;;;;;;16.57;69.52;101822.03;7402111;19;20095;-68
2022/07/16 03:00:55;;;;;;;5.05;3.40;;;;;;;16.50;69.93;101828.22;7396617;19;20082;-62
2022/07/16 03:03:22;;;;;;;5.10;3.53;;;;;;;16.48;70.33;101829.75;7400409;19;20340;-63
2022/07/16 03:05:50;;;;;;;5.70;3.67;;;;;;;16.47;70.25;101822.56;7404249;19;20010;-60
2022/07/16 03:26:23;;;;;;;8.10;4.63;;;;;;;16.28;70.86;101818.44;7401789;19;20010;-59
2022/07/16 03:28:51;;;;;;;8.32;5.25;;;;;;;16.21;71.52;101815.47;7400036;19;20007;-60
2022/07/16 03:31:18;;;;;;;9.23;5.80;;;;;;;16.15;72.03;101816.09;7398455;19;20047;-59
2022/07/16 03:33:46;;;;;;;7.82;4.80;;;;;;;16.13;72.41;101819.22;7398484;19;20476;-60
2022/07/16 03:36:13;;;;;;;9.95;5.32;;;;;;;16.14;72.16;101826.44;7399901;19;20022;-59
2022/07/16 03:41:29;;;;;;;8.13;4.82;;;;;;;16.15;72.31;101830.84;7398949;19;20010;-60
2022/07/16 03:47:51;;;;;;;7.97;5.53;;;;;;;16.16;72.57;101818.50;7399213;19;21629;-58
2022/07/16 03:50:19;;;;;;;11.00;5.93;;;;;;;16.16;72.46;101815.72;7397511;19;20015;-61
2022/07/16 03:56:18;;;;;;;8.57;4.88;;;;;;;16.12;72.79;101817.63;7398638;19;20018;-59
2022/07/16 03:59:06;;;;;;;10.15;5.57;;;;;;;16.13;72.68;101813.63;7400310;19;20027;-59
2022/07/16 04:13:06;;;;;;;11.38;5.15;;;;;;;16.02;72.44;101806.94;7401800;19;20364;-59
2022/07/16 04:15:54;;;;;;;7.57;5.93;;;;;;;15.97;72.89;101803.59;7396385;19;20006;-57
2022/07/16 04:18:21;;;;;;;7.75;5.00;;;;;;;15.99;72.91;101806.84;7397068;19;20015;-60
2022/07/16 04:20:49;;;;;;;9.88;6.60;;;;;;;15.95;73.62;101801.16;7397029;19;20013;-59
2022/07/16 04:23:18;;;;;;;8.27;6.15;;;;;;;15.96;74.03;101801.97;7399432;19;20048;-59
2022/07/16 04:25:46;;;;;;;12.32;6.57;;;;;;;15.95;73.85;101798.38;7399983;19;20060;-58
2022/07/16 04:28:16;;;;;;;8.65;6.30;;;;;;;15.93;74.13;101808.28;7397973;19;20006;-62
2022/07/16 04:30:44;;;;;;;9.85;6.35;;;;;;;15.95;74.36;101805.94;7396223;19;20037;-59
2022/07/16 04:33:12;;;;;;;8.88;6.35;;;;;;;15.93;74.32;101809.09;7401289;19;20070;-59
2022/07/16 04:35:39;;;;;;;8.85;6.55;;;;;;;15.97;74.20;101811.97;7400508;19;20007;-60
2022/07/16 04:44:40;;;;;;;11.30;6.28;;;;;;;16.08;73.46;101816.69;7397772;19;20367;-58
2022/07/16 04:47:07;;;;;;;7.65;5.88;;;;;;;16.07;73.86;101808.69;7395475;19;20366;-60
2022/07/16 04:53:41;;;;;;;10.55;7.18;;;;;;;16.07;73.86;101803.88;7398532;19;20077;-59
2022/07/16 04:56:29;;;;;;;9.65;7.13;;;;;;;16.07;74.15;101806.69;7400051;19;20014;-60
2022/07/16 05:03:08;;;;;;;8.52;6.00;;;;;;;16.13;73.78;101813.63;7398356;19;20013;-59
2022/07/16 05:05:58;;;;;;;10.40;6.30;;;;;;;16.13;74.34;101810.84;7397245;19;20014;-59
2022/07/16 05:08:46;;;;;;;9.30;6.60;;;;;;;16.14;74.37;101817.25;7394287;19;20006;-60
2022/07/16 05:11:33;;;;;;;8.98;6.18;;;;;;;16.16;74.79;101812.94;7395367;19;20015;-60
2022/07/16 05:14:21;;;;;;;7.90;6.25;;;;;;;16.18;74.60;101809.75;7397642;19;20011;-59
2022/07/16 05:17:09;;;;;;;9.82;6.38;;;;;;;16.26;74.81;101811.59;7397430;19;20013;-59
2022/07/16 05:19:57;;;;;;;8.60;6.28;;;;;;;16.27;75.04;101802.84;7397658;19;20003;-58
2022/07/16 05:22:45;;;;;;;10.38;6.50;;;;;;;16.27;75.38;101814.03;7396122;19;20010;-59
2022/07/16 05:25:33;;;;;;;9.82;6.65;;;;;;;16.32;75.46;101819.38;7397248;19;20015;-59
2022/07/16 05:28:21;;;;;;;8.38;5.40;;;;;;;16.35;75.18;101817.84;7395202;19;20471;-61
2022/07/16 05:31:09;;;;;;;7.45;6.05;;;;;;;16.39;75.49;101805.56;7390427;19;20160;-60
2022/07/16 05:37:58;;;;;;;7.78;5.40;;;;;;;16.47;75.57;101811.38;7396584;19;20010;-62
2022/07/16 05:40:46;;;;;;;7.28;5.45;;;;;;;16.55;75.65;101810.41;7397807;19;20033;-60
2022/07/16 05:43:33;;;;;;;10.38;5.03;;;;;;;16.59;75.33;101814.09;7392092;19;20073;-59
2022/07/16 05:46:21;;;;;;;5.88;4.72;;;;;;;16.64;75.18;101808.25;7394606;19;20011;-59
2022/07/16 05:49:09;;;;;;;6.82;5.07;;;;;;;16.67;75.53;101810.31;7394265;19;20015;-59
2022/07/16 05:51:57;;;;;;;6.55;5.00;;;;;;;16.72;75.53;101807.25;7395511;19;20319;-60
2022/07/16 05:54:45;;;;;;;5.97;4.03;;;;;;;16.74;75.50;101810.50;7396436;19;20011;-60
2022/07/16 05:57:33;;;;;;;9.32;5.82;;;;;;;16.76;75.76;101808.16;7394693;19;20014;-58
2022/07/16 06:03:33;;;;;;;5.55;4.22;;;;;;;16.88;75.71;101814.47;7390996;19;20019;-58
2022/07/16 06:06:00;;;;;;;7.65;4.10;;;;;;;16.92;75.74;101818.16;7398184;19;20022;-59
2022/07/16 06:08:28;;;;;;;10.95;5.38;;;;;;;16.99;76.00;101820.31;7391052;19;20044;-59
2022/07/16 06:10:55;;;;;;;5.93;3.40;;;;;;;17.06;75.84;101823.28;7395564;19;20023;-57
2022/07/16 06:13:24;;;;;;;5.53;3.53;;;;;;;17.11;75.54;101822.19;7394570;19;20021;-59
2022/07/16 06:15:52;;;;;;;6.35;4.13;;;;;;;17.20;75.62;101815.22;7394888;19;20014;-60
2022/07/16 06:18:19;;;;;;;6.40;4.38;;;;;;;17.27;75.49;101823.78;7391636;19;20015;-60
2022/07/16 06:20:47;;;;;;;3.97;3.33;;;;;;;17.33;75.27;101827.94;7396380;19;20505;-61
2022/07/16 06:23:14;;;;;;;6.40;4.72;;;;;;;17.37;75.28;101823.22;7394593;19;20475;-59
2022/07/16 06:25:42;;;;;;;5.43;4.18;;;;;;;17.42;75.21;101824.94;7394794;19;20007;-58
2022/07/16 06:28:10;;;;;;;5.45;3.40;;;;;;;17.48;75.13;101824.28;7391569;19;20014;-60
2022/07/16 06:34:54;;;;;;;6.95;3.65;;;;;;;17.60;74.36;101823.38;7396299;19;20410;-59
2022/07/16 06:37:42;;;;;;;6.57;3.78;;;;;;;17.68;74.47;101822.34;7397807;19;20003;-59
2022/07/16 06:44:47;;;;;;;5.20;3.35;;;;;;;17.85;74.26;101826.69;7401901;19;20498;-59
2022/07/16 06:47:14;;;;;;;4.60;3.38;;;;;;;17.93;73.86;101836.88;7402475;19;20025;-59
2022/07/16 06:53:12;;;;;;;5.80;3.67;;;;;;;17.98;73.46;101836.56;7397049;19;20034;-59
2022/07/16 06:55:40;;;;;;;5.72;2.88;;;;;;;18.03;73.49;101839.09;7401624;19;20010;-61
2022/07/16 07:01:52;;;;;;;2.97;2.53;;;;;;;18.13;73.27;101855.31;7399780;19;20014;-60
2022/07/16 07:18:00;;;;;;;4.55;3.05;;;;;;;18.26;72.63;101845.56;7395536;19;20360;-62
2022/07/16 07:20:48;;;;;;;4.28;3.08;;;;;;;18.36;72.71;101852.56;7400674;19;20018;-59
2022/07/16 07:27:26;;;;;;;3.95;3.13;;;;;;;18.43;73.73;101853.50;7399202;19;20030;-56
2022/07/16 07:30:14;;;;;;;3.53;2.88;;;;;;;18.55;73.77;101844.94;7396798;19;20078;-59
2022/07/16 07:32:41;;;;;;;3.65;2.67;;;;;;;18.66;74.14;101842.34;7400141;19;20019;-58
2022/07/16 07:35:09;;;;;;;3.90;2.40;;;;;;;18.76;74.57;101850.13;7402224;19;20006;-58
2022/07/16 07:37:37;;;;;;;4.53;2.83;;;;;;;18.88;74.51;101852.72;7398587;19;20040;-59
2022/07/16 07:40:06;;;;;;;5.13;2.78;;;;;;;19.02;75.06;101846.56;7393364;19;20038;-58
2022/07/16 07:42:34;;;;;;;6.45;3.03;;;;;;;19.13;74.85;101839.94;7400221;19;20014;-58
2022/07/16 07:45:03;;;;;;;3.13;2.45;;;;;;;19.30;75.61;101850.63;7401348;19;20047;-57
2022/07/16 07:47:31;;;;;;;4.15;2.67;;;;;;;19.45;75.87;101843.25;7401335;19;20358;-59
2022/07/16 07:50:03;;;;;;;3.72;2.45;;;;;;;19.65;75.52;101839.13;7397771;19;20015;-61
2022/07/16 07:52:34;;;;;;;3.05;2.13;;;;;;;19.89;75.24;101841.47;7399772;19;20040;-58
2022/07/16 07:58:47;;;;;;;3.45;2.72;;;;;;;20.54;74.64;101849.47;7398820;19;20006;-60
2022/07/16 08:01:34;;;;;;;7.07;1.98;;;;;;;20.98;73.25;101850.28;7396477;19;20025;-61
2022/07/16 08:04:19;;;;;;;2.85;2.25;;;;;;;21.51;70.95;101853.53;7397340;19;20494;-57
2022/07/16 08:10:33;;;;;;;4.13;2.60;;;;;;;23.18;65.74;101866.97;7400958;19;20474;-59
2022/07/16 08:13:01;;;;;;;6.65;2.17;;;;;;;23.79;62.73;101867.72;7398454;19;20368;-58
2022/07/16 08:15:29;;;;;;;6.07;2.15;;;;;;;24.29;60.17;101863.50;7400253;19;20007;-60
2022/07/16 08:17:57;;;;;;;3.88;2.00;;;;;;;24.82;57.82;101868.84;7401125;19;20018;-60
2022/07/16 08:20:25;;;;;;;2.00;1.60;;;;;;;25.30;56.82;101866.03;7398581;19;20018;-57
2022/07/16 08:22:52;;;;;;;4.55;1.92;;;;;;;25.69;55.08;101866.47;7395647;19;20022;-57
2022/07/16 08:29:01;;;;;;;3.78;2.35;;;;;;;26.28;53.39;101857.66;7399942;19;20074;-60
2022/07/16 08:35:40;;;;;;;2.92;2.25;;;;;;;26.84;52.08;101862.56;7397362;19;20018;-57
2022/07/16 08:38:28;;;;;;;3.70;2.15;;;;;;;27.04;50.75;101859.78;7399185;19;20011;-60
2022/07/16 08:41:20;;;;;;;3.45;2.05;;;;;;;27.23;49.89;101855.38;7402464;19;20341;-59
2022/07/16 08:44:11;;;;;;;4.32;2.08;;;;;;;27.36;48.96;101856.38;7398778;19;20015;-58
2022/07/16 08:50:30;;;;;;;3.10;2.30;;;;;;;27.48;48.23;101856.56;7395468;19;20345;-57
2022/07/16 08:52:58;;;;;;;3.90;1.83;;;;;;;27.51;47.12;101860.63;7395657;19;20018;-61
2022/07/16 08:55:26;;;;;;;5.68;2.00;;;;;;;27.43;47.06;101848.53;7395775;19;20014;-60
2022/07/16 08:57:57;;;;;;;2.72;2.05;;;;;;;27.38;46.59;101846.16;7396636;19;20018;-57
2022/07/16 09:04:16;;;;;;;5.05;2.15;;;;;;;26.93;46.89;101870.50;7393705;19;20021;-59
2022/07/16 09:07:04;;;;;;;3.30;2.03;;;;;;;26.75;47.34;101865.09;7397413;19;20341;-58
2022/07/16 09:09:52;;;;;;;2.55;1.83;;;;;;;26.74;47.63;101868.38;7395529;19;20460;-58
2022/07/16 09:16:47;;;;;;;3.35;2.25;;;;;;;26.93;47.45;101868.47;7393144;19;20018;-58
2022/07/16 09:19:36;;;;;;;4.07;3.10;;;;;;;26.93;46.96;101879.03;7394752;19;20034;-59
2022/07/16 09:22:08;;;;;;;7.22;2.80;;;;;;;27.10;47.03;101863.75;7396858;19;20007;-57
2022/07/16 09:24:52;;;;;;;7.60;3.65;;;;;;;27.25;46.60;101870.78;7395140;19;20014;-59
2022/07/16 09:27:27;;;;;;;7.10;2.83;;;;;;;27.31;46.52;101871.09;7391135;19;20018;-59
2022/07/16 09:30:28;;;;;;;6.13;3.50;;;;;;;27.33;44.33;101860.06;7391408;19;20010;-60
2022/07/16 09:37:01;;;;;;;6.57;3.47;;;;;;;26.89;46.26;101859.22;7395950;19;20011;-58
2022/07/16 09:43:42;;;;;;;4.95;3.30;;;;;;;26.73;46.65;101853.34;7399710;19;20011;-58
2022/07/16 09:54:05;;;;;;;4.40;3.70;;;;;;;26.87;46.42;101847.47;7398710;19;20014;-59
2022/07/16 10:01:01;;;;;;;6.65;4.28;;;;;;;26.52;46.57;101834.59;7397274;19;20358;-59
2022/07/16 10:03:33;;;;;;;4.80;3.92;;;;;;;26.61;46.64;101836.88;7396437;19;20010;-57
2022/07/16 10:09:28;;;;;;;6.75;4.30;;;;;;;26.80;46.62;101847.56;7391963;19;20019;-57
2022/07/16 10:12:19;;;;;;;4.22;3.28;;;;;;;27.02;46.54;101853.72;7392877;19;20465;-59
2022/07/16 10:23:28;;;;;;;5.22;3.80;;;;;;;26.77;46.44;101851.28;7404430;19;20095;-59
2022/07/16 10:26:18;;;;;;;3.70;3.00;;;;;;;26.69;47.01;101857.50;7405840;19;20010;-57
2022/07/16 10:29:06;;;;;;;4.13;2.58;;;;;;;26.70;46.39;101859.88;7401662;19;20007;-56
2022/07/16 10:39:12;;;;;;;5.40;3.72;;;;;;;26.37;47.64;101869.31;7400246;19;20018;-59
2022/07/16 10:42:06;;;;;;;4.45;3.33;;;;;;;26.12;47.93;101880.16;7402280;19;20014;-60
2022/07/16 10:44:54;;;;;;;4.40;2.92;;;;;;;26.13;48.19;101891.13;7404857;19;20013;-58
2022/07/16 10:47:47;;;;;;;4.72;3.25;;;;;;;26.07;48.38;101874.94;7402657;19;20002;-59
2022/07/16 10:54:21;;;;;;;17.30;4.40;;;;;;;25.52;48.82;101886.50;7401044;19;19999;-59
2022/07/16 10:57:13;;;;;;;3.70;3.25;;;;;;;25.40;49.65;101882.13;7401250;19;20034;-60
2022/07/16 11:00:02;;;;;;;4.72;3.25;;;;;;;25.40;49.69;101877.28;7404942;19;20003;-60
2022/07/16 11:02:56;;;;;;;5.15;3.05;;;;;;;25.37;49.81;101871.63;7403961;19;20018;-60
2022/07/16 11:06:03;;;;;;;3.30;2.80;;;;;;;25.33;49.77;101876.53;7402332;19;20006;-59
2022/07/16 11:08:55;;;;;;;4.45;2.70;;;;;;;25.34;49.73;101867.59;7401153;19;20006;-57
2022/07/16 11:11:43;;;;;;;6.68;2.83;;;;;;;25.36;50.12;101870.03;7404799;19;20003;-57
2022/07/16 11:18:38;;;;;;;4.13;3.05;;;;;;;25.19;51.12;101853.97;7398567;19;20007;-61
2022/07/16 11:21:26;;;;;;;8.20;3.65;;;;;;;25.19;50.66;101859.66;7403271;19;20037;-62
2022/07/16 11:24:14;;;;;;;5.32;3.63;;;;;;;24.95;51.42;101866.31;7401472;19;20076;-61
2022/07/16 11:27:02;;;;;;;4.28;3.20;;;;;;;24.83;51.58;101856.31;7404097;19;20014;-61
2022/07/16 11:33:36;;;;;;;3.92;3.38;;;;;;;24.58;52.35;101861.31;7398167;19;20015;-61
2022/07/16 11:36:08;;;;;;;4.40;3.10;;;;;;;24.62;52.56;101859.28;7398227;19;20014;-61
2022/07/16 11:38:36;;;;;;;4.85;3.63;;;;;;;24.71;52.64;101851.91;7396366;19;20025;-62
2022/07/16 11:44:45;;;;;;;4.88;3.45;;;;;;;24.46;53.09;101844.81;7401817;19;20011;-61
2022/07/16 11:47:13;;;;;;;5.13;3.80;;;;;;;24.43;53.45;101837.13;7399971;19;20360;-61
2022/07/16 11:53:06;;;;;;;4.68;3.42;;;;;;;24.52;53.40;101832.63;7398186;19;20006;-61
2022/07/16 11:59:16;;;;;;;6.55;4.03;;;;;;;24.54;53.45;101832.22;7394043;19;20018;-59
2022/07/16 12:05:09;;;;;;;4.55;3.92;;;;;;;24.23;53.97;101831.16;7398128;19;20007;-60
2022/07/16 12:14:54;;;;;;;4.60;3.70;;;;;;;24.17;54.45;101832.84;7394302;19;20007;-61
2022/07/16 12:17:45;;;;;;;5.57;3.38;;;;;;;24.08;54.31;101829.59;7399631;19;20007;-60
2022/07/16 12:20:25;;;;;;;4.35;2.80;;;;;;;24.24;54.51;101841.28;7398130;19;20529;-61
2022/07/16 12:23:16;;;;;;;6.47;3.00;;;;;;;24.38;54.69;101843.22;7396368;19;20333;-60
2022/07/16 12:25:45;;;;;;;4.75;3.35;;;;;;;24.41;54.08;101837.53;7401159;19;20018;-56
2022/07/16 12:32:14;;;;;;;4.40;2.67;;;;;;;24.52;54.26;101837.47;7402458;19;20010;-55
2022/07/16 12:39:20;;;;;;;4.80;2.80;;;;;;;24.66;53.53;101838.19;7401127;19;20018;-58
2022/07/16 12:42:16;;;;;;;5.93;3.72;;;;;;;24.80;53.52;101838.13;7394427;19;20026;-54
2022/07/16 12:49:03;;;;;;;7.00;2.70;;;;;;;25.04;52.72;101824.97;7401405;19;20015;-58
2022/07/16 13:01:49;;;;;;;3.67;2.70;;;;;;;25.05;52.75;101808.75;7395189;19;20356;-57
2022/07/16 13:04:17;;;;;;;8.88;4.15;;;;;;;25.18;52.25;101818.34;7393849;19;20011;-58
2022/07/16 13:06:46;;;;;;;4.72;2.50;;;;;;;25.23;52.31;101823.59;7396919;19;20019;-57
2022/07/16 13:09:14;;;;;;;3.67;2.50;;;;;;;25.36;52.00;101821.84;7395847;19;20472;-57
2022/07/16 13:18:33;;;;;;;5.13;2.75;;;;;;;25.80;50.88;101821.75;7394845;19;20018;-58
2022/07/16 13:21:02;;;;;;;6.15;2.10;;;;;;;25.99;50.68;101823.97;7397459;19;20022;-56
2022/07/16 13:23:29;;;;;;;4.18;3.30;;;;;;;26.11;50.63;101816.88;7393038;19;20051;-58
2022/07/16 13:25:57;;;;;;;7.22;3.20;;;;;;;26.02;50.09;101806.09;7396178;19;20044;-57
2022/07/16 13:28:45;;;;;;;5.40;2.42;;;;;;;26.09;49.64;101810.84;7395646;19;20449;-55
2022/07/16 13:31:32;;;;;;;6.10;2.65;;;;;;;26.13;48.79;101796.66;7395668;19;20033;-56
2022/07/16 13:37:24;;;;;;;3.63;2.10;;;;;;;26.28;49.31;101813.03;7394927;19;20010;-56
2022/07/16 13:48:00;;;;;;;4.80;1.50;;;;;;;26.43;47.38;101807.94;7399944;19;20820;-61
2022/07/16 13:55:13;;;;;;;3.25;1.70;;;;;;;26.45;46.82;101814.81;7407548;19;20014;-61
2022/07/16 14:01:47;;;;;;;2.47;1.50;;;;;;;26.68;47.04;101822.59;7406815;19;20048;-61
2022/07/16 14:04:34;;;;;;;2.28;1.70;;;;;;;26.46;46.66;101819.25;7402881;19;20007;-62
2022/07/16 14:10:29;;;;;;;6.35;1.60;;;;;;;26.39;46.94;101793.00;7401517;19;20007;-62
2022/07/16 14:16:59;;;;;;;3.63;1.92;;;;;;;26.35;45.90;101793.06;7398596;19;20021;-60
2022/07/16 14:19:48;;;;;;;3.85;2.10;;;;;;;26.12;47.01;101784.44;7399773;19;20010;-60
2022/07/16 14:22:17;;;;;;;5.43;1.70;;;;;;;25.89;47.29;101790.81;7402570;19;20010;-63
2022/07/16 14:24:44;;;;;;;2.28;1.52;;;;;;;25.77;47.27;101791.41;7404135;19;20010;-61
2022/07/16 14:27:57;;;;;;;5.43;2.42;;;;;;;25.72;47.76;101797.53;7400443;19;20492;-61
2022/07/16 14:30:26;;;;;;;10.10;3.33;;;;;;;25.87;47.49;101789.63;7395607;19;20017;-60
2022/07/16 14:36:37;;;;;;;4.22;1.90;;;;;;;25.75;47.58;101784.53;7394718;19;20011;-62
2022/07/16 15:02:01;;;;;;;2.63;1.75;;;;;;;26.63;46.71;101794.66;7397734;19;20022;-60
2022/07/16 15:04:29;;;;;;;8.27;2.28;;;;;;;26.73;45.91;101788.00;7400006;19;20015;-60
2022/07/16 15:07:03;;;;;;;7.50;2.28;;;;;;;26.91;45.56;101796.25;7398233;19;20006;-60
2022/07/16 15:09:31;;;;;;;5.53;2.08;;;;;;;27.27;45.77;101793.59;7398074;19;20102;-60
2022/07/16 15:19:10;;;;;;;6.40;2.00;;;;;;;27.49;44.75;101801.28;7403347;19;20472;-60
2022/07/16 15:22:02;;;;;;;10.07;2.25;;;;;;;27.45;44.58;101794.88;7396857;19;20317;-62
2022/07/16 15:24:50;;;;;;;8.63;1.92;;;;;;;27.30;44.42;101798.41;7405096;19;20033;-60
2022/07/16 15:27:42;;;;;;;5.90;2.90;;;;;;;27.08;44.57;101795.97;7402483;19;20014;-60
2022/07/16 15:38:03;;;;;;;6.20;2.38;;;;;;;26.94;45.06;101787.66;7403184;19;20003;-60
2022/07/16 15:40:51;;;;;;;18.60;7.97;;;;;;;26.74;45.59;101800.19;7398207;19;20021;-60
2022/07/16 15:47:57;;;;;;;11.20;3.28;;;;;;;26.68;45.77;101779.97;7403488;19;20018;-61
2022/07/16 15:50:45;;;;;;;6.82;3.22;;;;;;;26.76;45.73;101781.47;7393645;19;20006;-60
2022/07/16 15:53:33;;;;;;;9.90;3.45;;;;;;;26.87;45.54;101782.13;7403663;19;20505;-61
2022/07/16 15:56:21;;;;;;;8.23;2.95;;;;;;;27.02;45.20;101794.84;7401874;19;20010;-61
2022/07/16 15:59:41;;;;;;;9.43;4.40;;;;;;;26.96;45.14;101788.03;7396363;19;20073;-61
2022/07/16 16:09:10;;;;;;;7.90;2.23;;;;;;;26.91;45.18;101797.06;7395112;19;20077;-61
2022/07/16 16:11:58;;;;;;;5.72;3.40;;;;;;;26.65;45.54;101791.38;7397757;19;20815;-60
2022/07/16 16:14:26;;;;;;;6.90;2.40;;;;;;;26.71;45.60;101784.78;7393805;19;20073;-62
2022/07/16 16:16:54;;;;;;;5.43;2.22;;;;;;;26.83;45.80;101792.72;7399294;19;20434;-61
2022/07/16 16:19:22;;;;;;;6.90;2.60;;;;;;;27.06;45.39;101794.75;7401068;19;20745;-59
2022/07/16 16:22:19;;;;;;;6.25;2.80;;;;;;;27.14;45.29;101791.34;7398555;19;20014;-60
2022/07/16 16:25:44;;;;;;;5.25;2.50;;;;;;;27.12;45.58;101779.63;7398934;19;20034;-60
2022/07/16 16:28:11;;;;;;;9.93;2.70;;;;;;;27.08;45.13;101784.59;7397447;19;20011;-60
2022/07/16 16:38:11;;;;;;;5.18;2.63;;;;;;;27.34;45.13;101784.91;7401909;19;20025;-60
2022/07/16 16:40:58;;;;;;;5.63;2.53;;;;;;;27.39;45.14;101781.56;7395763;19;20082;-61
2022/07/16 16:43:46;;;;;;;6.47;2.95;;;;;;;27.19;44.84;101776.63;7396731;19;20014;-61
2022/07/16 16:53:09;;;;;;;6.05;2.95;;;;;;;27.18;45.56;101772.22;7396284;19;20096;-61
2022/07/16 16:55:57;;;;;;;5.40;2.55;;;;;;;27.22;45.47;101774.19;7393293;19;20030;-61
2022/07/16 16:58:47;;;;;;;9.98;4.15;;;;;;;27.16;45.34;101766.13;7395248;19;20472;-63
2022/07/16 17:01:17;;;;;;;5.20;2.85;;;;;;;27.13;45.83;101767.03;7398976;19;20102;-62
2022/07/16 17:11:15;;;;;;;7.85;3.47;;;;;;;27.69;45.29;101765.09;7395906;19;20027;-60
2022/07/16 17:14:25;;;;;;;6.40;3.78;;;;;;;27.77;44.97;101766.56;7394971;19;20033;-61
2022/07/16 17:17:13;;;;;;;8.55;3.92;;;;;;;27.54;45.15;101758.09;7399258;19;20023;-60
2022/07/16 17:23:29;;;;;;;11.00;3.35;;;;;;;27.16;46.12;101754.75;7403132;19;20086;-60
2022/07/16 17:25:57;;;;;;;7.35;3.35;;;;;;;27.17;46.10;101756.38;7398891;19;20044;-61
2022/07/16 17:28:25;;;;;;;5.43;3.47;;;;;;;27.23;46.39;101759.53;7398984;19;20044;-60
2022/07/16 17:30:53;;;;;;;11.07;3.95;;;;;;;27.17;45.95;101761.25;7397744;19;20007;-61
2022/07/16 17:37:47;;;;;;;6.47;3.22;;;;;;;26.80;46.69;101759.50;7402633;19;20025;-61
2022/07/16 17:44:53;;;;;;;10.10;3.80;;;;;;;26.47;47.63;101763.28;7400044;19;20487;-61
2022/07/16 17:47:42;;;;;;;7.38;4.22;;;;;;;26.45;47.37;101768.59;7400175;19;20078;-60
2022/07/16 17:50:30;;;;;;;7.45;4.55;;;;;;;26.31;47.76;101774.47;7395898;19;20010;-61
2022/07/16 17:52:59;;;;;;;10.55;4.95;;;;;;;26.21;47.80;101767.69;7396089;19;20010;-60
2022/07/16 17:55:48;;;;;;;6.53;3.58;;;;;;;26.10;48.27;101763.41;7400980;19;20006;-60
2022/07/16 18:05:10;;;;;;;7.80;3.72;;;;;;;25.90;48.64;101758.41;7390364;19;20014;-63
2022/07/16 18:07:40;;;;;;;8.32;5.47;;;;;;;25.96;48.56;101767.25;7396802;19;20014;-60
2022/07/16 18:10:09;;;;;;;4.07;2.65;;;;;;;25.95;48.59;101769.25;7387326;19;20007;-60
2022/07/16 18:12:41;;;;;;;7.45;3.35;;;;;;;25.92;49.00;101761.59;7393975;19;20438;-60
2022/07/16 18:15:09;;;;;;;6.32;3.35;;;;;;;25.92;49.19;101761.59;7396455;19;20002;-60
2022/07/16 18:17:38;;;;;;;5.85;3.28;;;;;;;25.97;49.02;101758.28;7397160;19;20014;-60
2022/07/16 18:20:06;;;;;;;7.95;4.80;;;;;;;25.93;49.19;101760.38;7394334;19;20018;-59
2022/07/16 18:26:06;;;;;;;7.78;3.40;;;;;;;25.86;49.68;101754.00;7396726;19;20006;-58
2022/07/16 18:29:11;;;;;;;7.03;3.65;;;;;;;25.78;49.73;101755.31;7394294;19;20017;-58
2022/07/16 18:42:50;;;;;;;13.35;5.40;;;;;;;25.42;50.09;101746.41;7400577;19;20018;-60
2022/07/16 18:45:39;;;;;;;12.10;4.00;;;;;;;25.30;50.53;101741.28;7404490;19;20011;-59
2022/07/16 18:52:29;;;;;;;10.00;4.15;;;;;;;25.19;50.60;101746.28;7400556;19;20041;-62
2022/07/16 18:55:19;;;;;;;10.32;4.35;;;;;;;25.08;50.62;101737.06;7404539;19;20015;-59
2022/07/16 19:05:20;;;;;;;12.65;6.03;;;;;;;24.76;51.38;101729.66;7403933;19;20011;-58
2022/07/16 19:08:09;;;;;;;13.15;7.18;;;;;;;24.74;51.72;101729.28;7401256;19;20006;-59
2022/07/16 19:10:37;;;;;;;10.50;5.22;;;;;;;24.79;51.89;101723.19;7399187;19;20011;-58